Wetterdaten: Dienstag, 21.09.2010
Datum Zeit Temp. A. Feuchte A. Luftdruck Regen Wind Richtung Richtung Sonnenschein UV Solar Windben
21.09.2010 00:00 15,3 C 71 % 1015,8 hPa 0,0 mm 0,1 km/h (0 Bft) SW 227 0 min 0 UV-I 0 W/m 3,2 km/h (1 Bft)
21.09.2010 00:10 15,1 C 71 % 1015,8 hPa 0,0 mm 0,2 km/h (0 Bft) SW 229 0 min 0 UV-I 0 W/m 3,2 km/h (1 Bft)
21.09.2010 00:20 14,6 C 73 % 1015,8 hPa 0,0 mm 0,0 km/h (0 Bft) SW 229 0 min 0 UV-I 0 W/m 1,6 km/h (1 Bft)
21.09.2010 00:30 14,3 C 74 % 1015,9 hPa 0,0 mm 0,0 km/h (0 Bft) SW 229 0 min 0 UV-I 0 W/m 1,6 km/h (1 Bft)
21.09.2010 00:40 13,9 C 76 % 1015,9 hPa 0,0 mm 0,0 km/h (0 Bft) SW 229 0 min 0 UV-I 0 W/m 0,0 km/h (0 Bft)
21.09.2010 00:50 13,2 C 78 % 1016,0 hPa 0,0 mm 0,0 km/h (0 Bft) SW 229 0 min 0 UV-I 0 W/m 0,0 km/h (0 Bft)
21.09.2010 01:00 12,8 C 80 % 1016,0 hPa 0,0 mm 0,0 km/h (0 Bft) SW 229 0 min 0 UV-I 0 W/m 0,0 km/h (0 Bft)
21.09.2010 01:10 12,7 C 82 % 1016,1 hPa 0,0 mm 0,0 km/h (0 Bft) N 0 0 min 0 UV-I 0 W/m 0,0 km/h (0 Bft)
21.09.2010 01:20 12,6 C 82 % 1016,1 hPa 0,0 mm 0,0 km/h (0 Bft) N 0 0 min 0 UV-I 0 W/m 0,0 km/h (0 Bft)
21.09.2010 01:30 12,6 C 82 % 1016,3 hPa 0,0 mm 0,0 km/h (0 Bft) N 0 0 min 0 UV-I 0 W/m 0,0 km/h (0 Bft)
21.09.2010 01:40 12,4 C 83 % 1016,2 hPa 0,0 mm 0,0 km/h (0 Bft) N 0 0 min 0 UV-I 0 W/m 0,0 km/h (0 Bft)
21.09.2010 01:50 12,3 C 83 % 1016,2 hPa 0,0 mm 0,0 km/h (0 Bft) N 0 0 min 0 UV-I 0 W/m 0,0 km/h (0 Bft)
21.09.2010 02:00 12,3 C 84 % 1016,1 hPa 0,0 mm 0,0 km/h (0 Bft) N 0 0 min 0 UV-I 0 W/m 0,0 km/h (0 Bft)
21.09.2010 02:10 12,4 C 83 % 1016,3 hPa 0,0 mm 0,0 km/h (0 Bft) SW 225 0 min 0 UV-I 0 W/m 1,6 km/h (1 Bft)
21.09.2010 02:20 12,7 C 82 % 1016,4 hPa 0,0 mm 0,0 km/h (0 Bft) SW 225 0 min 0 UV-I 0 W/m 1,6 km/h (1 Bft)
21.09.2010 02:30 12,8 C 81 % 1016,4 hPa 0,0 mm 0,0 km/h (0 Bft) N 0 0 min 0 UV-I 0 W/m 0,0 km/h (0 Bft)
21.09.2010 02:40 12,7 C 81 % 1016,5 hPa 0,0 mm 0,0 km/h (0 Bft) N 0 0 min 0 UV-I 0 W/m 0,0 km/h (0 Bft)
21.09.2010 02:50 12,4 C 82 % 1016,6 hPa 0,0 mm 0,0 km/h (0 Bft) SW 225 0 min 0 UV-I 0 W/m 1,6 km/h (1 Bft)
21.09.2010 03:00 12,3 C 82 % 1016,6 hPa 0,0 mm 0,0 km/h (0 Bft) SW 225 0 min 0 UV-I 0 W/m 1,6 km/h (1 Bft)
21.09.2010 03:10 12,4 C 82 % 1016,7 hPa 0,0 mm 0,0 km/h (0 Bft) SW 225 0 min 0 UV-I 0 W/m 3,2 km/h (1 Bft)
21.09.2010 03:20 12,5 C 82 % 1016,8 hPa 0,0 mm 0,0 km/h (0 Bft) SW 225 0 min 0 UV-I 0 W/m 1,6 km/h (1 Bft)
21.09.2010 03:30 12,4 C 82 % 1016,8 hPa 0,0 mm 0,0 km/h (0 Bft) SW 225 0 min 0 UV-I 0 W/m 1,6 km/h (1 Bft)
21.09.2010 03:40 12,4 C 83 % 1016,9 hPa 0,0 mm 0,0 km/h (0 Bft) SW 225 0 min 0 UV-I 0 W/m 1,6 km/h (1 Bft)
21.09.2010 03:50 12,2 C 83 % 1016,9 hPa 0,0 mm 0,0 km/h (0 Bft) SW 225 0 min 0 UV-I 0 W/m 1,6 km/h (1 Bft)
21.09.2010 04:00 12,1 C 84 % 1017,0 hPa 0,0 mm 0,0 km/h (0 Bft) SW 225 0 min 0 UV-I 0 W/m 1,6 km/h (1 Bft)
21.09.2010 04:10 12,1 C 85 % 1017,0 hPa 0,0 mm 0,0 km/h (0 Bft) SW 225 0 min 0 UV-I 0 W/m 1,6 km/h (1 Bft)
21.09.2010 04:20 12,1 C 85 % 1017,0 hPa 0,0 mm 0,0 km/h (0 Bft) SW 225 0 min 0 UV-I 0 W/m 1,6 km/h (1 Bft)
21.09.2010 04:30 12,1 C 85 % 1017,0 hPa 0,0 mm 0,0 km/h (0 Bft) SW 225 0 min 0 UV-I 0 W/m 1,6 km/h (1 Bft)
21.09.2010 04:40 11,8 C 85 % 1017,2 hPa 0,0 mm 0,0 km/h (0 Bft) N 0 0 min 0 UV-I 0 W/m 0,0 km/h (0 Bft)
21.09.2010 04:50 11,6 C 86 % 1017,2 hPa 0,0 mm 0,0 km/h (0 Bft) SW 225 0 min 0 UV-I 0 W/m 1,6 km/h (1 Bft)
21.09.2010 05:00 11,6 C 85 % 1017,2 hPa 0,0 mm 0,0 km/h (0 Bft) N 0 0 min 0 UV-I 0 W/m 0,0 km/h (0 Bft)
21.09.2010 05:10 11,6 C 85 % 1017,3 hPa 0,0 mm 0,0 km/h (0 Bft) N 0 0 min 0 UV-I 0 W/m 0,0 km/h (0 Bft)
21.09.2010 05:20 11,5 C 85 % 1017,3 hPa 0,0 mm 0,0 km/h (0 Bft) N 0 0 min 0 UV-I 0 W/m 0,0 km/h (0 Bft)
21.09.2010 05:30 11,4 C 85 % 1017,4 hPa 0,0 mm 0,0 km/h (0 Bft) N 0 0 min 0 UV-I 0 W/m 0,0 km/h (0 Bft)
21.09.2010 05:40 11,4 C 85 % 1017,6 hPa 0,0 mm 0,0 km/h (0 Bft) N 0 0 min 0 UV-I 0 W/m 0,0 km/h (0 Bft)
21.09.2010 05:50 11,4 C 86 % 1017,5 hPa 0,0 mm 0,0 km/h (0 Bft) SW 225 0 min 0 UV-I 0 W/m 1,6 km/h (1 Bft)
21.09.2010 06:00 11,5 C 86 % 1017,5 hPa 0,0 mm 0,0 km/h (0 Bft) SW 225 0 min 0 UV-I 0 W/m 3,2 km/h (1 Bft)
21.09.2010 06:10 11,7 C 87 % 1017,6 hPa 0,0 mm 0,0 km/h (0 Bft) W-SW 247 0 min 0 UV-I 0 W/m 3,2 km/h (1 Bft)
21.09.2010 06:20 11,9 C 88 % 1017,7 hPa 0,0 mm 0,0 km/h (0 Bft) W-SW 247 0 min 0 UV-I 0 W/m 4,8 km/h (1 Bft)
21.09.2010 06:30 12,2 C 88 % 1017,7 hPa 0,0 mm 0,0 km/h (0 Bft) W-SW 247 0 min 0 UV-I 0 W/m 6,4 km/h (2 Bft)
21.09.2010 06:40 12,4 C 88 % 1017,7 hPa 0,0 mm 0,0 km/h (0 Bft) W-SW 247 0 min 0 UV-I 0 W/m 4,8 km/h (1 Bft)
21.09.2010 06:50 12,7 C 88 % 1017,7 hPa 0,0 mm 0,0 km/h (0 Bft) W-SW 247 0 min 0 UV-I 0 W/m 3,2 km/h (1 Bft)
21.09.2010 07:00 12,8 C 88 % 1017,8 hPa 0,0 mm 0,0 km/h (0 Bft) W-SW 247 0 min 0 UV-I 0 W/m 3,2 km/h (1 Bft)
21.09.2010 07:10 12,9 C 88 % 1017,9 hPa 0,0 mm 0,0 km/h (0 Bft) W-SW 247 0 min 0 UV-I 0 W/m 4,8 km/h (1 Bft)
21.09.2010 07:20 13,1 C 88 % 1018,0 hPa 0,0 mm 0,0 km/h (0 Bft) N 0 0 min 0 UV-I 0 W/m 0,0 km/h (0 Bft)
21.09.2010 07:30 13,1 C 88 % 1018,2 hPa 0,0 mm 0,0 km/h (0 Bft) N 0 0 min 0 UV-I 5 W/m 0,0 km/h (0 Bft)
21.09.2010 07:40 13,2 C 88 % 1018,2 hPa 0,0 mm 0,0 km/h (0 Bft) W-SW 247 0 min 0 UV-I 5 W/m 3,2 km/h (1 Bft)
21.09.2010 07:50 13,3 C 88 % 1018,5 hPa 0,0 mm 0,0 km/h (0 Bft) W-SW 247 0 min 0 UV-I 9 W/m 1,6 km/h (1 Bft)
21.09.2010 08:00 13,4 C 88 % 1018,6 hPa 0,0 mm 0,0 km/h (0 Bft) W-SW 253 0 min 0 UV-I 12 W/m 0,0 km/h (0 Bft)
21.09.2010 08:10 13,4 C 87 % 1018,8 hPa 0,0 mm 0,0 km/h (0 Bft) N 0 0 min 0 UV-I 12 W/m 0,0 km/h (0 Bft)
21.09.2010 08:20 13,4 C 87 % 1018,9 hPa 0,0 mm 0,0 km/h (0 Bft) W-SW 247 0 min 0 UV-I 16 W/m 1,6 km/h (1 Bft)
21.09.2010 08:30 13,6 C 88 % 1019,1 hPa 0,0 mm 0,0 km/h (0 Bft) W-SW 247 0 min 0 UV-I 32 W/m 1,6 km/h (1 Bft)
21.09.2010 08:40 13,6 C 87 % 1019,2 hPa 0,0 mm 0,0 km/h (0 Bft) N 0 0 min 0 UV-I 33 W/m 0,0 km/h (0 Bft)
21.09.2010 08:50 13,7 C 87 % 1019,3 hPa 0,0 mm 0,0 km/h (0 Bft) W-SW 247 0 min 0 UV-I 28 W/m 4,8 km/h (1 Bft)
21.09.2010 09:00 13,8 C 87 % 1019,5 hPa 0,0 mm 0,0 km/h (0 Bft) W-SW 247 0 min 0 UV-I 23 W/m 3,2 km/h (1 Bft)
21.09.2010 09:10 13,8 C 87 % 1019,6 hPa 0,0 mm 0,0 km/h (0 Bft) W-SW 247 0 min 0 UV-I 37 W/m 3,2 km/h (1 Bft)
21.09.2010 09:20 13,8 C 87 % 1019,6 hPa 0,0 mm 0,0 km/h (0 Bft) N 0 0 min 1 UV-I 63 W/m 0,0 km/h (0 Bft)
21.09.2010 09:30 13,9 C 87 % 1019,7 hPa 0,0 mm 0,0 km/h (0 Bft) W-SW 247 10 min 1 UV-I 195 W/m 3,2 km/h (1 Bft)
21.09.2010 09:40 14,3 C 86 % 1019,8 hPa 0,0 mm 1,6 km/h (1 Bft) W-SW 247 0 min 1 UV-I 183 W/m 6,4 km/h (2 Bft)
21.09.2010 09:50 14,4 C 86 % 1020,0 hPa 0,0 mm 3,2 km/h (1 Bft) W 270 0 min 1 UV-I 169 W/m 11,3 km/h (2 Bft)
21.09.2010 10:00 14,5 C 86 % 1020,0 hPa 0,0 mm 3,2 km/h (1 Bft) W 270 0 min 1 UV-I 148 W/m 9,7 km/h (2 Bft)
21.09.2010 10:10 14,4 C 86 % 1020,1 hPa 0,0 mm 4,8 km/h (1 Bft) W-SW 247 0 min 1 UV-I 81 W/m 14,5 km/h (3 Bft)
21.09.2010 10:20 14,3 C 87 % 1020,2 hPa 0,0 mm 1,6 km/h (1 Bft) W 270 0 min 1 UV-I 77 W/m 11,3 km/h (2 Bft)
21.09.2010 10:30 14,2 C 87 % 1020,2 hPa 0,0 mm 1,6 km/h (1 Bft) W 270 0 min 1 UV-I 74 W/m 9,7 km/h (2 Bft)
21.09.2010 10:40 14,2 C 88 % 1020,3 hPa 0,0 mm 3,2 km/h (1 Bft) W 270 0 min 1 UV-I 83 W/m 8,0 km/h (2 Bft)
21.09.2010 10:50 14,1 C 88 % 1020,3 hPa 0,0 mm 1,6 km/h (1 Bft) W-NW 292 0 min 1 UV-I 86 W/m 11,3 km/h (2 Bft)
21.09.2010 11:00 14,2 C 88 % 1020,3 hPa 0,0 mm 1,6 km/h (1 Bft) W-NW 292 0 min 1 UV-I 83 W/m 8,0 km/h (2 Bft)
21.09.2010 11:10 14,3 C 88 % 1020,4 hPa 0,0 mm 0,0 km/h (0 Bft) SW 225 0 min 1 UV-I 91 W/m 4,8 km/h (1 Bft)
21.09.2010 11:20 14,4 C 88 % 1020,4 hPa 0,0 mm 0,0 km/h (0 Bft) W-SW 247 0 min 1 UV-I 102 W/m 1,6 km/h (1 Bft)
21.09.2010 11:30 14,5 C 87 % 1020,6 hPa 0,0 mm 1,6 km/h (1 Bft) NW 315 0 min 1 UV-I 93 W/m 8,0 km/h (2 Bft)
21.09.2010 11:40 14,5 C 88 % 1020,6 hPa 0,0 mm 0,0 km/h (0 Bft) NW 315 0 min 1 UV-I 125 W/m 4,8 km/h (1 Bft)
21.09.2010 11:50 14,6 C 88 % 1020,6 hPa 0,0 mm 0,0 km/h (0 Bft) NW 315 0 min 1 UV-I 151 W/m 4,8 km/h (1 Bft)
21.09.2010 12:00 14,6 C 88 % 1020,8 hPa 0,0 mm 0,0 km/h (0 Bft) NW 315 0 min 2 UV-I 167 W/m 4,8 km/h (1 Bft)
21.09.2010 12:10 14,8 C 87 % 1020,7 hPa 0,0 mm 0,0 km/h (0 Bft) NW 315 0 min 2 UV-I 169 W/m 3,2 km/h (1 Bft)
21.09.2010 12:20 14,8 C 87 % 1020,7 hPa 0,0 mm 0,0 km/h (0 Bft) NW 315 0 min 1 UV-I 116 W/m 3,2 km/h (1 Bft)
21.09.2010 12:30 14,9 C 87 % 1020,8 hPa 0,0 mm 0,0 km/h (0 Bft) NW 315 0 min 1 UV-I 120 W/m 3,2 km/h (1 Bft)
21.09.2010 12:40 14,9 C 87 % 1020,8 hPa 0,0 mm 0,0 km/h (0 Bft) NW 315 0 min 1 UV-I 125 W/m 3,2 km/h (1 Bft)
21.09.2010 12:50 15,0 C 87 % 1020,7 hPa 0,0 mm 0,0 km/h (0 Bft) NW 315 0 min 1 UV-I 121 W/m 1,6 km/h (1 Bft)
21.09.2010 13:00 15,1 C 87 % 1020,8 hPa 0,0 mm 0,0 km/h (0 Bft) NW 315 0 min 1 UV-I 121 W/m 3,2 km/h (1 Bft)
21.09.2010 13:10 15,1 C 86 % 1020,9 hPa 0,0 mm 0,0 km/h (0 Bft) NW 315 0 min 2 UV-I 165 W/m 1,6 km/h (1 Bft)
21.09.2010 13:20 15,2 C 85 % 1020,9 hPa 0,0 mm 0,0 km/h (0 Bft) NW 315 0 min 2 UV-I 165 W/m 3,2 km/h (1 Bft)
21.09.2010 13:30 15,3 C 85 % 1020,9 hPa 0,0 mm 0,0 km/h (0 Bft) NW 315 0 min 2 UV-I 162 W/m 1,6 km/h (1 Bft)
21.09.2010 13:40 15,3 C 85 % 1021,0 hPa 0,0 mm 0,0 km/h (0 Bft) NW 315 0 min 2 UV-I 172 W/m 1,6 km/h (1 Bft)
21.09.2010 13:50 15,6 C 83 % 1021,1 hPa 0,0 mm 0,0 km/h (0 Bft) W-NW 292 0 min 2 UV-I 265 W/m 4,8 km/h (1 Bft)
21.09.2010 14:00 15,8 C 82 % 1021,1 hPa 0,0 mm 0,0 km/h (0 Bft) W-NW 292 0 min 2 UV-I 283 W/m 3,2 km/h (1 Bft)
21.09.2010 14:10 16,2 C 82 % 1021,1 hPa 0,0 mm 0,0 km/h (0 Bft) W-NW 292 0 min 2 UV-I 295 W/m 3,2 km/h (1 Bft)
21.09.2010 14:20 16,3 C 81 % 1021,1 hPa 0,0 mm 0,0 km/h (0 Bft) N-NW 337 0 min 2 UV-I 325 W/m 3,2 km/h (1 Bft)
21.09.2010 14:30 16,4 C 80 % 1021,0 hPa 0,0 mm 0,0 km/h (0 Bft) N-NW 337 10 min 3 UV-I 547 W/m 4,8 km/h (1 Bft)
21.09.2010 14:40 16,9 C 79 % 1020,9 hPa 0,0 mm 1,6 km/h (1 Bft) N-NW 337 10 min 3 UV-I 404 W/m 6,4 km/h (2 Bft)
21.09.2010 14:50 16,7 C 80 % 1021,0 hPa 0,0 mm 1,6 km/h (1 Bft) NO 45 0 min 3 UV-I 285 W/m 6,4 km/h (2 Bft)
21.09.2010 15:00 16,7 C 80 % 1021,0 hPa 0,0 mm 0,0 km/h (0 Bft) NO 45 10 min 3 UV-I 392 W/m 4,8 km/h (1 Bft)
21.09.2010 15:10 16,7 C 79 % 1020,9 hPa 0,0 mm 0,0 km/h (0 Bft) NO 45 10 min 3 UV-I 554 W/m 3,2 km/h (1 Bft)
21.09.2010 15:20 17,4 C 76 % 1020,9 hPa 0,0 mm 0,0 km/h (0 Bft) NO 45 10 min 3 UV-I 566 W/m 1,6 km/h (1 Bft)
21.09.2010 15:30 17,6 C 76 % 1020,9 hPa 0,0 mm 0,0 km/h (0 Bft) N-NO 22 10 min 3 UV-I 550 W/m 3,2 km/h (1 Bft)
21.09.2010 15:40 18,0 C 75 % 1020,9 hPa 0,0 mm 0,0 km/h (0 Bft) N-NO 22 10 min 3 UV-I 559 W/m 4,8 km/h (1 Bft)
21.09.2010 15:50 18,3 C 75 % 1020,9 hPa 0,0 mm 0,0 km/h (0 Bft) N-NO 22 10 min 3 UV-I 494 W/m 1,6 km/h (1 Bft)
21.09.2010 16:00 18,6 C 74 % 1020,8 hPa 0,0 mm 0,9 km/h (0 Bft) N-NW 338 10 min 2 UV-I 462 W/m 3,2 km/h (1 Bft)
21.09.2010 16:10 18,6 C 76 % 1020,7 hPa 0,0 mm 0,0 km/h (0 Bft) N-NW 337 10 min 2 UV-I 469 W/m 3,2 km/h (1 Bft)
21.09.2010 16:20 18,9 C 73 % 1020,8 hPa 0,0 mm 0,0 km/h (0 Bft) N-NW 337 10 min 2 UV-I 448 W/m 4,8 km/h (1 Bft)
21.09.2010 16:30 18,6 C 75 % 1020,7 hPa 0,0 mm 0,0 km/h (0 Bft) N-NW 337 10 min 2 UV-I 422 W/m 3,2 km/h (1 Bft)
21.09.2010 16:40 18,7 C 74 % 1020,7 hPa 0,0 mm 0,0 km/h (0 Bft) N-NW 337 10 min 2 UV-I 401 W/m 3,2 km/h (1 Bft)
21.09.2010 16:50 18,8 C 72 % 1020,7 hPa 0,0 mm 0,0 km/h (0 Bft) N-NW 337 10 min 2 UV-I 359 W/m 3,2 km/h (1 Bft)
21.09.2010 17:00 18,6 C 74 % 1020,8 hPa 0,0 mm 0,0 km/h (0 Bft) N-NW 337 10 min 1 UV-I 316 W/m 3,2 km/h (1 Bft)
21.09.2010 17:10 18,8 C 73 % 1020,8 hPa 0,0 mm 0,0 km/h (0 Bft) N-NW 337 10 min 1 UV-I 318 W/m 4,8 km/h (1 Bft)
21.09.2010 17:20 18,9 C 73 % 1020,6 hPa 0,0 mm 0,0 km/h (0 Bft) N-NW 337 10 min 1 UV-I 278 W/m 4,8 km/h (1 Bft)
21.09.2010 17:30 18,8 C 72 % 1020,6 hPa 0,0 mm 0,0 km/h (0 Bft) N-NW 337 10 min 1 UV-I 265 W/m 3,2 km/h (1 Bft)
21.09.2010 17:40 18,5 C 73 % 1020,7 hPa 0,0 mm 0,0 km/h (0 Bft) N-NW 337 10 min 1 UV-I 258 W/m 4,8 km/h (1 Bft)
21.09.2010 17:50 18,6 C 72 % 1020,6 hPa 0,0 mm 0,0 km/h (0 Bft) N-NW 337 10 min 1 UV-I 225 W/m 1,6 km/h (1 Bft)
21.09.2010 18:00 18,6 C 74 % 1020,7 hPa 0,0 mm 0,0 km/h (0 Bft) N-NW 337 10 min 1 UV-I 197 W/m 1,6 km/h (1 Bft)
21.09.2010 18:10 18,3 C 73 % 1020,8 hPa 0,0 mm 0,0 km/h (0 Bft) N-NW 337 10 min 1 UV-I 176 W/m 1,6 km/h (1 Bft)
21.09.2010 18:20 18,3 C 73 % 1020,9 hPa 0,0 mm 0,0 km/h (0 Bft) N-NW 337 10 min 1 UV-I 146 W/m 1,6 km/h (1 Bft)
21.09.2010 18:30 18,4 C 73 % 1020,9 hPa 0,0 mm 0,0 km/h (0 Bft) N-NW 337 10 min 0 UV-I 116 W/m 1,6 km/h (1 Bft)
21.09.2010 18:40 18,3 C 73 % 1020,8 hPa 0,0 mm 0,0 km/h (0 Bft) N-NW 337 10 min 0 UV-I 98 W/m 1,6 km/h (1 Bft)
21.09.2010 18:50 17,9 C 75 % 1020,9 hPa 0,0 mm 0,0 km/h (0 Bft) N-NW 337 10 min 0 UV-I 70 W/m 1,6 km/h (1 Bft)
21.09.2010 19:00 17,7 C 76 % 1020,9 hPa 0,0 mm 0,0 km/h (0 Bft) N-NW 337 10 min 0 UV-I 53 W/m 1,6 km/h (1 Bft)
21.09.2010 19:10 17,3 C 79 % 1020,8 hPa 0,0 mm 0,0 km/h (0 Bft) N 0 10 min 0 UV-I 25 W/m 0,0 km/h (0 Bft)
21.09.2010 19:20 16,6 C 81 % 1020,8 hPa 0,0 mm 0,0 km/h (0 Bft) N 0 0 min 0 UV-I 18 W/m 0,0 km/h (0 Bft)
21.09.2010 19:30 15,9 C 83 % 1021,0 hPa 0,0 mm 0,0 km/h (0 Bft) N 0 0 min 0 UV-I 0 W/m 0,0 km/h (0 Bft)
21.09.2010 19:40 15,4 C 84 % 1021,0 hPa 0,0 mm 0,0 km/h (0 Bft) N 0 0 min 0 UV-I 0 W/m 0,0 km/h (0 Bft)
21.09.2010 19:50 15,0 C 85 % 1021,1 hPa 0,0 mm 0,0 km/h (0 Bft) N 0 0 min 0 UV-I 0 W/m 0,0 km/h (0 Bft)
21.09.2010 20:00 14,7 C 86 % 1021,2 hPa 0,0 mm 0,0 km/h (0 Bft) N 0 0 min 0 UV-I 0 W/m 0,0 km/h (0 Bft)
21.09.2010 20:10 14,4 C 87 % 1021,2 hPa 0,0 mm 0,0 km/h (0 Bft) N 0 0 min 0 UV-I 0 W/m 0,0 km/h (0 Bft)
21.09.2010 20:20 14,2 C 87 % 1021,2 hPa 0,0 mm 0,0 km/h (0 Bft) N 0 0 min 0 UV-I 0 W/m 0,0 km/h (0 Bft)
21.09.2010 20:30 13,9 C 87 % 1021,2 hPa 0,0 mm 0,0 km/h (0 Bft) N 0 0 min 0 UV-I 0 W/m 0,0 km/h (0 Bft)
21.09.2010 20:40 13,7 C 88 % 1021,3 hPa 0,0 mm 0,0 km/h (0 Bft) N 0 0 min 0 UV-I 0 W/m 0,0 km/h (0 Bft)
21.09.2010 20:50 13,5 C 88 % 1021,4 hPa 0,0 mm 0,0 km/h (0 Bft) N 0 0 min 0 UV-I 0 W/m 0,0 km/h (0 Bft)
21.09.2010 21:00 13,3 C 89 % 1021,4 hPa 0,0 mm 0,0 km/h (0 Bft) N 0 0 min 0 UV-I 0 W/m 0,0 km/h (0 Bft)
21.09.2010 21:10 13,2 C 89 % 1021,4 hPa 0,0 mm 0,0 km/h (0 Bft) N 0 0 min 0 UV-I 0 W/m 0,0 km/h (0 Bft)
21.09.2010 21:20 13,1 C 90 % 1021,4 hPa 0,0 mm 0,0 km/h (0 Bft) N 0 0 min 0 UV-I 0 W/m 0,0 km/h (0 Bft)
21.09.2010 21:30 12,9 C 90 % 1021,4 hPa 0,0 mm 0,0 km/h (0 Bft) N 0 0 min 0 UV-I 0 W/m 0,0 km/h (0 Bft)
21.09.2010 21:40 12,7 C 90 % 1021,4 hPa 0,0 mm 0,0 km/h (0 Bft) N 0 0 min 0 UV-I 0 W/m 0,0 km/h (0 Bft)
21.09.2010 21:50 12,6 C 90 % 1021,5 hPa 0,0 mm 0,0 km/h (0 Bft) N 0 0 min 0 UV-I 0 W/m 0,0 km/h (0 Bft)
21.09.2010 22:00 12,3 C 90 % 1021,6 hPa 0,0 mm 0,0 km/h (0 Bft) N-NW 342 0 min 0 UV-I 0 W/m 0,0 km/h (0 Bft)
21.09.2010 22:10 12,2 C 91 % 1021,6 hPa 0,0 mm 0,0 km/h (0 Bft) N-NW 343 0 min 0 UV-I 0 W/m 0,0 km/h (0 Bft)
21.09.2010 22:20 12,0 C 91 % 1021,7 hPa 0,0 mm 0,0 km/h (0 Bft) N-NW 343 0 min 0 UV-I 0 W/m 0,0 km/h (0 Bft)
21.09.2010 22:30 11,9 C 91 % 1021,7 hPa 0,0 mm 0,0 km/h (0 Bft) N-NW 342 0 min 0 UV-I 0 W/m 0,0 km/h (0 Bft)
21.09.2010 22:40 11,7 C 91 % 1021,8 hPa 0,0 mm 0,0 km/h (0 Bft) N-NW 343 0 min 0 UV-I 0 W/m 0,0 km/h (0 Bft)
21.09.2010 22:50 11,7 C 91 % 1021,7 hPa 0,0 mm 0,0 km/h (0 Bft) N-NW 343 0 min 0 UV-I 0 W/m 0,0 km/h (0 Bft)
21.09.2010 23:00 11,6 C 92 % 1021,7 hPa 0,0 mm 0,0 km/h (0 Bft) N-NW 343 0 min 0 UV-I 0 W/m 0,0 km/h (0 Bft)
21.09.2010 23:10 11,5 C 91 % 1021,8 hPa 0,0 mm 0,0 km/h (0 Bft) N 0 0 min 0 UV-I 0 W/m 0,0 km/h (0 Bft)
21.09.2010 23:20 11,4 C 92 % 1021,8 hPa 0,0 mm 0,0 km/h (0 Bft) N 0 0 min 0 UV-I 0 W/m 0,0 km/h (0 Bft)
21.09.2010 23:30 11,3 C 92 % 1021,9 hPa 0,0 mm 0,0 km/h (0 Bft) N 0 0 min 0 UV-I 0 W/m 0,0 km/h (0 Bft)
21.09.2010 23:40 11,2 C 92 % 1021,9 hPa 0,0 mm 0,0 km/h (0 Bft) N 0 0 min 0 UV-I 0 W/m 0,0 km/h (0 Bft)
21.09.2010 23:50 11,1 C 92 % 1021,9 hPa 0,0 mm 0,0 km/h (0 Bft) N 0 0 min 0 UV-I 0 W/m 0,0 km/h (0 Bft)
_ Min-Zeit 23:40 00:00 00:00 - 00:20 - - - - - 00:40
Minimum _ 11,1 C 71 % 1015,8 hPa - 0,0 km/h (0 Bft) - - - - - 0,0 km/h (0 Bft)
_ Max-Zeit 17:20 23:00 23:30 00:00 10:10 - - 09:30 14:30 15:20 10:10
Maximum _ 19,1 C 92 % 1021,9 hPa 0,0 mm 4,8 km/h
W-SW (1 Bft)
- - 10 min 3 UV-I 566 W/m 14,5 km/h
W-NW (3 Bft)
Durchschnitt _ 14,3 C 84 % 1019,5 hPa #0,0 mm 0,2 km/h (0 Bft) W - #4:50 h 2 UV-I 198 W/m 2,4 km/h (1 Bft)